Time;durP1;ratioP1;P1;durP2;ratioP2;P2;SDS_P1;SDS_P2;PMS_P1;PMS_P2;Temp;Humidity;BMP_temperature;BMP_pressure;BME280_temperature;BME280_humidity;BME280_pressure;Samples;Min_cycle;Max_cycle;Signal;HPM_P1;HPM_P2
2022/08/19 00:01:50;;;;;;;6.78;5.28;;;;;;;21.23;51.23;94512.31;5131909;27;20031;-80
2022/08/19 00:04:16;;;;;;;5.85;5.25;;;;;;;21.17;51.48;94526.28;5131313;27;20030;-79
2022/08/19 00:06:42;;;;;;;5.90;5.20;;;;;;;21.29;51.95;94574.91;5132802;27;20038;-79
2022/08/19 00:09:10;;;;;;;7.65;5.40;;;;;;;21.00;51.90;94512.63;5114308;27;20019;-78
2022/08/19 00:11:37;;;;;;;6.47;5.85;;;;;;;21.33;51.85;94562.09;5133120;27;20094;-78
2022/08/19 00:14:03;;;;;;;7.20;5.57;;;;;;;20.97;52.07;94507.75;5132639;27;20031;-78
2022/08/19 00:16:29;;;;;;;6.40;5.45;;;;;;;21.02;52.20;94529.09;5133163;27;20469;-79
2022/08/19 00:18:55;;;;;;;5.63;5.13;;;;;;;20.85;52.49;94509.34;5132549;27;20034;-78
2022/08/19 00:21:21;;;;;;;6.50;4.95;;;;;;;20.90;52.12;94520.94;5114194;27;20020;-79
2022/08/19 00:23:46;;;;;;;5.70;5.20;;;;;;;20.79;52.15;94510.94;5114089;27;20114;-79
2022/08/19 00:26:12;;;;;;;7.03;5.47;;;;;;;20.89;52.26;94532.50;5132547;27;20130;-79
2022/08/19 00:28:37;;;;;;;5.90;5.30;;;;;;;20.74;52.62;94523.91;5132421;27;20481;-78
2022/08/19 00:31:04;;;;;;;6.63;5.43;;;;;;;21.11;52.39;94583.34;5132453;27;20038;-78
2022/08/19 00:33:33;;;;;;;6.03;5.43;;;;;;;20.73;52.58;94543.41;5132342;27;20462;-79
2022/08/19 00:36:04;;;;;;;7.63;5.50;;;;;;;20.69;52.48;94524.50;5132657;27;20446;-78
2022/08/19 00:38:30;;;;;;;5.95;5.35;;;;;;;20.77;52.61;94534.06;5131891;27;20035;-79
2022/08/19 00:40:55;;;;;;;6.00;5.38;;;;;;;20.71;52.25;94525.13;5132249;27;20118;-78
2022/08/19 00:43:22;;;;;;;6.53;5.13;;;;;;;21.14;52.26;94582.97;5132005;27;20035;-79
2022/08/19 00:45:47;;;;;;;6.30;5.30;;;;;;;20.71;52.69;94524.31;5132391;27;20031;-79
2022/08/19 00:48:13;;;;;;;6.65;6.00;;;;;;;20.77;52.67;94534.06;5132194;27;20029;-78
2022/08/19 00:50:42;;;;;;;7.03;5.65;;;;;;;20.80;52.58;94531.03;5131957;27;20031;-79
2022/08/19 00:53:09;;;;;;;7.43;5.30;;;;;;;20.83;52.65;94514.00;5113182;28;20027;-78
2022/08/19 00:55:37;;;;;;;6.00;5.43;;;;;;;20.72;52.88;94520.66;5132172;27;20084;-79
2022/08/19 00:58:07;;;;;;;7.05;5.53;;;;;;;21.04;52.87;94579.88;5113518;27;20035;-78
2022/08/19 01:00:37;;;;;;;5.80;4.93;;;;;;;21.05;52.90;94576.22;5113219;27;20089;-78
2022/08/19 01:03:09;;;;;;;5.97;5.33;;;;;;;20.56;53.04;94513.06;5131885;27;20061;-78
2022/08/19 01:05:35;;;;;;;6.50;5.80;;;;;;;20.49;53.16;94516.47;5132165;27;20228;-78
2022/08/19 01:08:02;;;;;;;7.72;5.80;;;;;;;20.69;53.33;94556.16;5131670;27;20031;-79
2022/08/19 01:10:31;;;;;;;6.57;5.50;;;;;;;20.39;53.69;94533.63;5131832;27;20027;-78
2022/08/19 01:12:57;;;;;;;6.80;5.25;;;;;;;20.36;53.91;94547.22;5131745;27;20027;-78
2022/08/19 01:15:26;;;;;;;5.57;5.07;;;;;;;20.30;54.27;94533.78;5096495;28;20556;-78
2022/08/19 01:17:51;;;;;;;6.45;5.63;;;;;;;20.31;53.91;94524.09;5131727;27;20051;-78
2022/08/19 01:20:19;;;;;;;5.60;5.10;;;;;;;20.28;53.94;94521.81;5112727;28;20509;-79
2022/08/19 01:22:46;;;;;;;5.72;5.20;;;;;;;20.63;53.81;94567.50;5131484;28;20151;-78
2022/08/19 01:25:14;;;;;;;8.02;5.65;;;;;;;20.11;54.30;94512.56;5131636;28;20031;-78
2022/08/19 01:27:40;;;;;;;7.43;5.72;;;;;;;20.41;54.75;94574.66;5113066;28;20042;-79
2022/08/19 01:30:07;;;;;;;6.72;5.65;;;;;;;20.17;54.74;94535.53;5131539;28;20075;-79
2022/08/19 01:32:32;;;;;;;5.82;5.20;;;;;;;20.37;54.43;94570.78;5112668;28;20400;-80
2022/08/19 01:34:58;;;;;;;7.72;5.95;;;;;;;19.79;54.89;94522.69;5130655;28;20476;-79
2022/08/19 01:37:23;;;;;;;6.78;6.07;;;;;;;19.67;55.33;94508.38;5130374;28;20026;-79
2022/08/19 01:39:51;;;;;;;7.95;7.05;;;;;;;19.68;55.82;94541.66;5130356;28;20508;-78
2022/08/19 01:42:17;;;;;;;7.43;6.30;;;;;;;19.97;56.36;94593.38;5130674;28;20053;-78
2022/08/19 01:44:42;;;;;;;6.97;6.30;;;;;;;19.64;56.30;94534.09;5131181;28;20039;-78
2022/08/19 01:47:09;;;;;;;9.95;5.82;;;;;;;19.70;56.62;94526.47;5131409;28;20028;-78
2022/08/19 01:49:34;;;;;;;6.22;5.63;;;;;;;19.92;56.60;94537.78;5131142;28;20400;-78
2022/08/19 01:52:00;;;;;;;8.40;5.82;;;;;;;20.09;57.05;94584.78;5112940;28;20026;-80
2022/08/19 01:54:26;;;;;;;6.28;5.68;;;;;;;19.79;56.51;94520.06;5131173;28;20042;-78
2022/08/19 01:56:52;;;;;;;6.38;5.72;;;;;;;19.77;56.04;94524.69;5131458;28;20019;-78
2022/08/19 01:59:20;;;;;;;6.85;6.00;;;;;;;19.71;55.53;94513.09;5130904;28;20040;-79
2022/08/19 02:01:45;;;;;;;6.50;5.60;;;;;;;19.67;55.83;94509.22;5112775;28;20034;-79
2022/08/19 02:04:11;;;;;;;5.97;5.22;;;;;;;20.13;55.32;94561.47;5131182;27;20019;-78
2022/08/19 02:06:37;;;;;;;5.93;5.32;;;;;;;19.93;54.94;94519.16;5135394;27;20054;-78
2022/08/19 02:09:05;;;;;;;6.45;5.20;;;;;;;19.94;54.68;94517.31;5116800;27;20027;-78
2022/08/19 02:11:33;;;;;;;6.13;5.55;;;;;;;20.08;54.64;94533.03;5115014;28;20024;-78
2022/08/19 02:14:03;;;;;;;8.65;6.18;;;;;;;19.90;56.25;94553.81;5114471;28;20520;-78
2022/08/19 02:16:30;;;;;;;6.43;5.82;;;;;;;19.66;56.36;94514.69;5114917;28;20031;-78
2022/08/19 02:18:55;;;;;;;7.05;6.30;;;;;;;19.75;56.17;94516.16;5113058;28;20036;-78
2022/08/19 02:21:22;;;;;;;7.47;6.75;;;;;;;19.64;56.39;94517.47;5114670;28;20169;-79
2022/08/19 02:23:47;;;;;;;7.72;6.57;;;;;;;19.72;56.98;94574.50;5114484;28;20032;-78
2022/08/19 02:26:13;;;;;;;6.95;6.35;;;;;;;19.76;56.73;94576.59;5114658;28;20473;-78
2022/08/19 02:28:39;;;;;;;6.90;5.80;;;;;;;19.38;56.49;94518.84;5114012;28;20027;-78
2022/08/19 02:31:09;;;;;;;6.22;5.63;;;;;;;19.72;56.24;94562.16;5114294;28;20478;-79
2022/08/19 02:33:34;;;;;;;7.85;5.75;;;;;;;19.94;55.52;94573.50;5112851;28;20032;-78
2022/08/19 02:36:03;;;;;;;7.68;5.57;;;;;;;19.57;55.96;94525.31;5113645;28;20039;-78
2022/08/19 02:38:29;;;;;;;7.03;6.32;;;;;;;19.32;57.13;94527.50;5114285;28;20039;-78
2022/08/19 02:41:00;;;;;;;9.15;7.00;;;;;;;19.13;58.00;94531.56;5114142;28;20118;-78
2022/08/19 02:43:26;;;;;;;6.72;6.13;;;;;;;19.58;57.67;94587.53;5113888;28;20120;-78
2022/08/19 02:45:51;;;;;;;7.15;5.68;;;;;;;19.63;57.77;94587.78;5113564;28;20493;-78
2022/08/19 02:48:20;;;;;;;6.68;6.07;;;;;;;19.27;57.86;94531.72;5113921;28;20469;-78
2022/08/19 02:50:46;;;;;;;6.45;5.88;;;;;;;19.49;57.96;94575.50;5114067;28;20031;-78
2022/08/19 02:53:11;;;;;;;7.82;5.97;;;;;;;19.52;58.45;94588.28;5112452;28;20410;-78
2022/08/19 02:55:43;;;;;;;6.30;5.70;;;;;;;19.08;58.65;94539.19;5113093;28;20392;-78
2022/08/19 02:58:09;;;;;;;6.38;5.57;;;;;;;18.99;59.00;94545.59;5113499;28;20043;-78
2022/08/19 03:00:34;;;;;;;8.77;5.63;;;;;;;18.90;58.86;94551.97;5112537;28;20111;-78
2022/08/19 03:03:00;;;;;;;6.75;6.15;;;;;;;18.47;59.97;94555.25;5113407;28;20493;-79
2022/08/19 03:05:26;;;;;;;6.97;6.28;;;;;;;18.37;60.34;94536.28;5113410;28;20031;-78
2022/08/19 03:07:52;;;;;;;6.50;5.90;;;;;;;18.94;59.66;94595.31;5113874;28;20032;-78
2022/08/19 03:10:17;;;;;;;6.70;6.00;;;;;;;18.80;58.93;94539.09;5123705;27;20411;-78
2022/08/19 03:12:44;;;;;;;6.72;6.00;;;;;;;18.99;58.33;94553.47;5133767;27;20023;-78
2022/08/19 03:15:10;;;;;;;7.22;6.45;;;;;;;19.16;58.53;94598.81;5115797;27;20039;-78
2022/08/19 03:17:35;;;;;;;6.28;5.68;;;;;;;19.24;58.35;94593.44;5132991;27;20487;-78
2022/08/19 03:20:03;;;;;;;6.43;5.82;;;;;;;18.93;58.48;94541.06;5133642;27;20076;-78
2022/08/19 03:22:29;;;;;;;6.25;5.65;;;;;;;18.93;58.26;94538.44;5133781;27;20108;-79
2022/08/19 03:24:55;;;;;;;6.75;5.93;;;;;;;19.02;58.36;94545.22;5133729;27;20425;-78
2022/08/19 03:27:21;;;;;;;6.88;6.00;;;;;;;18.96;58.48;94540.69;5133343;27;20027;-81
2022/08/19 03:29:46;;;;;;;7.10;6.22;;;;;;;18.78;58.87;94522.69;5133470;27;20470;-78
2022/08/19 03:32:12;;;;;;;6.88;5.82;;;;;;;19.13;58.84;94589.47;5133576;27;20087;-80
2022/08/19 03:34:38;;;;;;;6.50;5.82;;;;;;;18.91;58.83;94545.69;5132864;27;20542;-78
2022/08/19 03:37:06;;;;;;;7.57;6.60;;;;;;;18.65;59.28;94530.38;5132757;27;20023;-79
2022/08/19 03:39:31;;;;;;;7.97;6.30;;;;;;;18.42;60.10;94533.13;5133266;27;20027;-78
2022/08/19 03:41:59;;;;;;;7.45;6.70;;;;;;;18.95;59.57;94594.34;5133171;27;20083;-78
2022/08/19 03:44:25;;;;;;;7.00;6.30;;;;;;;18.72;60.19;94592.63;5133212;27;20023;-78
2022/08/19 03:46:52;;;;;;;6.57;5.97;;;;;;;18.72;60.38;94582.09;5132985;27;20038;-78
2022/08/19 03:49:18;;;;;;;6.65;5.97;;;;;;;18.50;60.15;94540.91;5114633;27;20031;-79
2022/08/19 03:51:43;;;;;;;8.68;6.57;;;;;;;18.72;60.44;94600.50;5132922;27;20035;-80
2022/08/19 03:54:11;;;;;;;9.30;6.97;;;;;;;18.45;60.61;94562.50;5132758;27;20500;-78
2022/08/19 03:56:37;;;;;;;7.22;6.57;;;;;;;18.48;60.39;94553.44;5114754;27;20104;-79
2022/08/19 03:59:03;;;;;;;7.28;6.57;;;;;;;18.57;60.39;94568.09;5132404;27;20832;-78
2022/08/19 04:01:28;;;;;;;7.03;6.40;;;;;;;18.61;60.26;94558.03;5133199;27;20496;-78
2022/08/19 04:03:57;;;;;;;7.32;6.28;;;;;;;18.80;60.61;94609.31;5132640;27;20424;-78
2022/08/19 04:06:27;;;;;;;6.60;6.00;;;;;;;18.93;60.59;94620.81;5132366;27;20039;-78
2022/08/19 04:08:56;;;;;;;;;;;;;;;18.94;60.64;94616.38;5133170;27;20043;-78
2022/08/19 04:11:23;;;;;;;6.90;6.30;;;;;;;18.74;61.29;94632.72;5132758;27;20304;-78
2022/08/19 04:13:50;;;;;;;6.75;6.15;;;;;;;18.61;61.00;94579.06;5114253;27;20096;-79
2022/08/19 04:16:17;;;;;;;6.93;6.22;;;;;;;18.54;61.47;94585.06;5132860;27;20035;-78
2022/08/19 04:18:42;;;;;;;6.60;5.97;;;;;;;19.02;61.32;94628.63;5132059;27;20023;-79
2022/08/19 04:21:08;;;;;;;6.50;5.80;;;;;;;18.74;60.98;94568.75;5132715;27;20065;-78
2022/08/19 04:23:35;;;;;;;6.95;6.10;;;;;;;18.97;61.01;94594.94;5132258;27;20458;-78
2022/08/19 04:26:01;;;;;;;6.47;5.88;;;;;;;18.84;60.84;94584.28;5108438;27;20042;-78
2022/08/19 04:28:26;;;;;;;6.30;5.70;;;;;;;19.28;60.32;94634.22;5130144;27;20011;-78
2022/08/19 04:30:55;;;;;;;6.40;5.80;;;;;;;19.40;58.79;94627.47;5131072;27;20118;-78
2022/08/19 04:33:23;;;;;;;8.40;5.70;;;;;;;19.21;58.77;94596.47;5112287;27;20401;-79
2022/08/19 04:35:49;;;;;;;7.45;5.55;;;;;;;19.50;59.54;94606.13;5130519;27;20030;-78
2022/08/19 04:38:16;;;;;;;6.38;5.47;;;;;;;19.88;58.83;94649.88;5111139;27;20015;-78
2022/08/19 04:43:30;;;;;;;6.00;5.50;;;;;;;19.96;56.03;94592.56;5125676;27;20042;-78
2022/08/19 04:45:55;;;;;;;6.25;5.63;;;;;;;20.74;54.12;94605.72;5109067;27;20117;-78
2022/08/19 04:48:25;;;;;;;5.60;5.13;;;;;;;23.04;48.58;94617.06;5131927;27;20484;-80
2022/08/19 04:50:51;;;;;;;8.02;5.18;;;;;;;24.14;44.74;94585.91;5095577;28;20036;-77
2022/08/19 04:53:17;;;;;;;6.25;5.18;;;;;;;24.35;43.88;94574.13;5107650;27;20027;-80
2022/08/19 04:55:42;;;;;;;6.07;5.22;;;;;;;26.73;39.67;94617.28;5125145;27;20055;-78
2022/08/19 04:58:08;;;;;;;6.72;5.28;;;;;;;28.26;36.37;94613.38;5126793;27;20019;-78
2022/08/19 05:00:34;;;;;;;8.60;5.35;;;;;;;29.16;34.79;94579.47;5111737;27;20079;-78
2022/08/19 05:03:00;;;;;;;7.32;4.97;;;;;;;30.05;33.02;94586.34;5126213;27;20121;-80
2022/08/19 05:05:26;;;;;;;6.18;5.57;;;;;;;31.41;31.12;94616.28;5126651;27;20027;-77
2022/08/19 05:07:51;;;;;;;6.63;5.18;;;;;;;32.06;29.65;94579.16;5128493;27;20038;-78
2022/08/19 05:10:17;;;;;;;7.63;5.35;;;;;;;33.10;27.75;94589.63;5124417;27;20034;-78
2022/08/19 05:12:42;;;;;;;7.43;6.00;;;;;;;33.69;27.08;94596.16;5129165;27;20025;-78
2022/08/19 05:15:08;;;;;;;5.88;5.28;;;;;;;33.59;27.50;94621.22;5130379;27;20055;-78
2022/08/19 05:17:34;;;;;;;13.60;11.32;;;;;;;30.64;31.14;94588.97;5129814;27;20027;-79
2022/08/19 05:22:44;;;;;;;6.85;5.93;;;;;;;27.73;36.64;94582.53;5127492;28;20102;-79
2022/08/19 05:25:12;;;;;;;7.38;6.40;;;;;;;27.27;37.53;94598.47;5130202;28;20019;-78
2022/08/19 05:27:38;;;;;;;7.95;5.30;;;;;;;26.77;40.07;94582.19;5117351;28;20039;-78
2022/08/19 05:30:04;;;;;;;8.60;5.47;;;;;;;26.58;41.09;94597.47;5119216;27;20117;-77
2022/08/19 05:32:29;;;;;;;6.30;5.28;;;;;;;26.59;38.98;94591.94;5121213;28;20458;-79
2022/08/19 05:34:58;;;;;;;9.35;5.60;;;;;;;26.63;39.54;94618.91;5108602;28;20084;-78
2022/08/19 05:37:26;;;;;;;6.32;5.10;;;;;;;25.81;40.50;94584.94;5094189;28;20099;-78
2022/08/19 05:39:52;;;;;;;7.97;5.25;;;;;;;25.85;41.12;94632.19;5125785;27;20053;-77
2022/08/19 05:42:19;;;;;;;6.03;5.40;;;;;;;25.21;42.21;94580.41;5132548;27;20023;-78
2022/08/19 05:44:48;;;;;;;7.88;5.22;;;;;;;25.36;42.59;94612.72;5131504;27;20058;-78
2022/08/19 05:47:14;;;;;;;7.57;5.20;;;;;;;25.71;42.32;94636.00;5114347;27;20063;-79
2022/08/19 05:49:40;;;;;;;7.80;6.00;;;;;;;25.55;40.90;94594.91;5115238;27;20449;-78
2022/08/19 05:52:07;;;;;;;13.95;6.40;;;;;;;25.87;40.99;94631.94;5132979;27;20523;-79
2022/08/19 05:54:33;;;;;;;8.43;5.97;;;;;;;25.91;40.72;94640.25;5142123;27;20057;-75
2022/08/19 05:56:58;;;;;;;7.95;5.75;;;;;;;25.69;41.40;94606.19;5120727;27;20022;-78
2022/08/19 05:59:23;;;;;;;7.82;5.55;;;;;;;25.79;40.00;94610.94;5137866;27;20059;-76
2022/08/19 06:01:54;;;;;;;7.20;5.10;;;;;;;25.84;40.45;94587.16;5134501;27;20031;-75
2022/08/19 06:04:20;;;;;;;8.13;5.60;;;;;;;25.59;40.81;94593.41;5136572;27;20054;-76
2022/08/19 06:06:47;;;;;;;13.52;5.85;;;;;;;25.80;40.42;94602.75;5134205;27;20038;-77
2022/08/19 06:09:13;;;;;;;7.00;6.05;;;;;;;25.84;41.02;94593.28;5133969;27;20519;-75
2022/08/19 06:11:40;;;;;;;11.32;6.43;;;;;;;26.34;40.95;94645.38;5135162;27;20019;-77
2022/08/19 06:14:08;;;;;;;7.45;5.38;;;;;;;26.26;40.47;94643.84;5138552;27;20119;-75
2022/08/19 06:16:37;;;;;;;11.57;6.00;;;;;;;25.95;41.23;94625.50;5116184;27;20035;-76
2022/08/19 06:19:03;;;;;;;9.13;5.75;;;;;;;25.90;41.91;94649.28;5130120;27;21475;-77
2022/08/19 06:21:29;;;;;;;10.48;6.28;;;;;;;25.69;42.03;94608.84;5130838;27;20709;-77
2022/08/19 06:23:56;;;;;;;8.13;6.53;;;;;;;25.99;41.81;94653.25;5128421;27;20105;-76
2022/08/19 06:26:21;;;;;;;8.15;6.18;;;;;;;25.83;42.13;94610.31;5131047;27;20027;-76
2022/08/19 06:28:47;;;;;;;8.85;6.13;;;;;;;25.94;42.21;94631.84;5131238;27;20023;-76
2022/08/19 06:31:16;;;;;;;11.55;5.97;;;;;;;25.93;42.26;94612.41;5133046;27;20019;-76
2022/08/19 06:33:42;;;;;;;7.55;6.05;;;;;;;26.04;42.05;94602.81;5128326;27;20420;-77
2022/08/19 06:36:16;;;;;;;8.90;6.18;;;;;;;26.26;41.37;94613.75;5126255;27;20605;-77
2022/08/19 06:38:41;;;;;;;8.55;6.40;;;;;;;26.61;41.08;94647.66;5127951;27;20027;-77
2022/08/19 06:41:06;;;;;;;7.93;5.70;;;;;;;26.43;40.41;94595.25;5127646;27;20039;-76
2022/08/19 06:43:32;;;;;;;7.03;5.90;;;;;;;26.42;40.67;94598.97;5130849;27;20466;-75
2022/08/19 06:45:58;;;;;;;11.63;6.97;;;;;;;26.62;40.36;94607.44;5115011;27;20035;-76
2022/08/19 06:48:24;;;;;;;12.23;5.78;;;;;;;26.98;40.01;94637.56;5131838;27;20107;-76
2022/08/19 06:50:51;;;;;;;7.10;5.93;;;;;;;26.83;40.30;94602.56;5116274;27;20100;-75
2022/08/19 06:53:18;;;;;;;12.30;6.15;;;;;;;26.86;39.94;94586.13;5131574;27;20035;-76
2022/08/19 06:55:44;;;;;;;12.60;5.82;;;;;;;26.60;40.37;94606.84;5131436;27;20030;-77
2022/08/19 06:58:10;;;;;;;13.32;5.95;;;;;;;26.93;40.26;94642.75;5128806;27;20092;-77
2022/08/19 07:00:36;;;;;;;8.38;5.45;;;;;;;27.12;39.78;94651.44;5130201;27;20428;-80
2022/08/19 07:03:04;;;;;;;9.57;5.70;;;;;;;27.09;39.90;94598.59;5115427;27;20051;-81
2022/08/19 07:05:30;;;;;;;8.07;5.95;;;;;;;27.45;39.33;94640.16;5124736;27;20397;-76
2022/08/19 07:07:57;;;;;;;11.68;5.80;;;;;;;27.24;39.48;94604.28;5112172;27;20035;-77
2022/08/19 07:10:22;;;;;;;7.78;5.38;;;;;;;27.49;39.08;94617.31;5127307;27;20042;-77
2022/08/19 07:12:49;;;;;;;11.30;6.28;;;;;;;27.68;38.70;94641.13;5129411;27;20027;-77
2022/08/19 07:15:16;;;;;;;7.05;5.53;;;;;;;27.54;39.06;94606.72;5128723;27;20027;-78
2022/08/19 07:17:43;;;;;;;8.98;5.78;;;;;;;27.23;39.34;94617.84;5108926;27;20699;-77
2022/08/19 07:20:09;;;;;;;8.10;5.55;;;;;;;27.16;38.97;94612.63;5129368;27;20023;-77
2022/08/19 07:22:34;;;;;;;7.72;5.90;;;;;;;27.47;37.89;94621.25;5131997;27;20099;-78
2022/08/19 07:25:02;;;;;;;10.50;5.45;;;;;;;27.45;38.55;94612.69;5131554;27;20110;-77
2022/08/19 07:27:28;;;;;;;5.72;5.00;;;;;;;27.92;37.99;94648.03;5131102;27;20507;-78
2022/08/19 07:29:53;;;;;;;6.70;5.00;;;;;;;27.83;37.76;94610.25;5132050;27;20033;-76
2022/08/19 07:32:19;;;;;;;11.73;5.45;;;;;;;27.82;37.50;94591.81;5129749;27;20102;-78
2022/08/19 07:34:45;;;;;;;7.60;5.82;;;;;;;28.23;38.16;94640.56;5128234;27;20460;-81
2022/08/19 07:37:10;;;;;;;6.88;5.13;;;;;;;28.48;37.57;94646.38;5126173;27;20453;-80
2022/08/19 07:39:36;;;;;;;7.63;5.10;;;;;;;28.42;36.37;94598.44;5130286;27;20046;-78
2022/08/19 07:42:06;;;;;;;6.32;5.55;;;;;;;28.63;36.27;94607.56;5128175;27;20031;-79
2022/08/19 07:44:33;;;;;;;8.02;5.45;;;;;;;28.82;36.02;94610.81;5112797;27;20476;-75
2022/08/19 07:46:59;;;;;;;6.78;5.13;;;;;;;28.90;35.55;94591.66;5129665;27;20039;-77
2022/08/19 07:49:25;;;;;;;6.82;5.18;;;;;;;29.06;35.12;94603.38;5127238;27;20057;-78
2022/08/19 07:52:01;;;;;;;8.10;5.18;;;;;;;29.38;35.51;94639.13;5130438;27;20031;-76
2022/08/19 07:54:27;;;;;;;5.80;5.10;;;;;;;28.91;34.90;94593.28;5092635;27;20031;-77
2022/08/19 07:56:52;;;;;;;5.95;4.97;;;;;;;29.32;35.55;94637.44;5130335;27;20111;-78
2022/08/19 07:59:19;;;;;;;8.13;4.97;;;;;;;29.49;35.16;94633.91;5132071;27;20484;-76
2022/08/19 08:01:45;;;;;;;5.65;4.88;;;;;;;29.66;34.11;94642.69;5109678;27;20083;-76
2022/08/19 08:09:39;;;;;;;5.45;4.72;;;;;;;29.45;32.09;94598.81;5126761;27;20046;-77
2022/08/19 08:12:10;;;;;;;6.63;5.25;;;;;;;29.83;32.46;94643.41;5130989;27;20031;-76
2022/08/19 08:14:41;;;;;;;8.65;6.07;;;;;;;30.04;33.31;94640.97;5114615;27;20122;-78
2022/08/19 08:17:07;;;;;;;7.90;4.78;;;;;;;29.90;33.65;94603.06;5131624;27;20019;-78
2022/08/19 08:19:35;;;;;;;7.85;5.03;;;;;;;30.11;32.65;94601.38;5131868;27;20501;-78
2022/08/19 08:22:01;;;;;;;5.32;4.68;;;;;;;30.14;31.58;94592.03;5111242;27;20085;-77
2022/08/19 08:24:28;;;;;;;6.57;5.22;;;;;;;30.42;32.11;94629.31;5113952;27;20043;-79
2022/08/19 08:26:53;;;;;;;7.82;4.82;;;;;;;30.06;31.83;94590.63;5132201;27;20073;-79
2022/08/19 08:29:19;;;;;;;9.52;5.05;;;;;;;30.25;32.22;94591.91;5128750;27;20023;-77
2022/08/19 08:31:45;;;;;;;10.07;4.60;;;;;;;30.43;31.71;94624.75;5126734;27;20030;-77
2022/08/19 08:34:11;;;;;;;9.38;8.48;;;;;;;30.61;31.80;94627.00;5111703;27;20023;-79
2022/08/19 08:36:41;;;;;;;6.05;4.55;;;;;;;30.72;31.73;94617.97;5113368;27;20038;-78
2022/08/19 08:39:08;;;;;;;7.03;4.85;;;;;;;30.56;31.61;94578.72;5124837;27;20488;-78
2022/08/19 08:41:35;;;;;;;7.57;4.65;;;;;;;30.85;31.60;94615.97;5126532;27;20031;-78
2022/08/19 08:44:03;;;;;;;5.10;4.10;;;;;;;30.73;30.88;94571.38;5130777;27;20031;-78
2022/08/19 08:46:39;;;;;;;5.53;4.30;;;;;;;30.92;30.76;94582.50;5112764;27;20519;-77
2022/08/19 08:49:26;;;;;;;5.68;4.03;;;;;;;31.18;29.06;94604.09;5106647;27;20510;-76
2022/08/19 08:51:57;;;;;;;7.60;4.40;;;;;;;31.02;29.44;94599.72;5107105;28;20572;-75
2022/08/19 08:54:24;;;;;;;6.65;4.20;;;;;;;30.99;30.92;94558.13;5110429;27;20091;-77
2022/08/19 08:56:49;;;;;;;7.03;4.25;;;;;;;31.29;29.34;94604.94;5111327;27;20091;-77
2022/08/19 08:59:26;;;;;;;5.72;4.03;;;;;;;31.30;29.55;94595.81;5110591;28;20552;-77
2022/08/19 09:01:52;;;;;;;4.10;3.60;;;;;;;31.38;28.85;94588.09;5108226;28;20117;-77
2022/08/19 09:04:17;;;;;;;5.78;4.35;;;;;;;31.52;29.11;94601.84;5126930;27;20031;-78
2022/08/19 09:07:10;;;;;;;4.72;4.05;;;;;;;31.58;28.52;94586.56;5130022;27;20038;-76
2022/08/19 09:09:40;;;;;;;5.45;3.90;;;;;;;31.39;27.61;94545.97;5104107;27;20067;-78
2022/08/19 09:12:34;;;;;;;4.22;3.70;;;;;;;31.56;27.30;94559.16;5104073;28;20031;-76
2022/08/19 09:15:07;;;;;;;13.18;4.30;;;;;;;31.64;27.81;94555.97;5097979;27;20100;-76
2022/08/19 09:17:38;;;;;;;5.03;3.60;;;;;;;31.69;27.53;94558.66;5112772;27;20027;-76
2022/08/19 09:20:10;;;;;;;7.45;4.05;;;;;;;31.82;27.13;94585.00;5113980;28;20084;-76
2022/08/19 09:22:40;;;;;;;7.07;3.95;;;;;;;31.72;27.34;94546.59;5129574;28;20046;-76
2022/08/19 09:25:05;;;;;;;;;;;;;;;32.02;26.52;94578.91;5111518;28;20090;-76
2022/08/19 09:27:31;;;;;;;5.55;3.90;;;;;;;31.85;27.53;94543.41;5129788;28;20404;-77
2022/08/19 09:29:57;;;;;;;4.70;3.40;;;;;;;32.02;28.12;94538.59;5094253;28;20054;-75
2022/08/19 09:32:23;;;;;;;6.35;3.65;;;;;;;32.23;26.17;94554.72;5111313;28;20074;-77
2022/08/19 09:34:49;;;;;;;7.13;3.80;;;;;;;32.22;26.53;94531.63;5110944;28;20023;-76
2022/08/19 09:37:14;;;;;;;3.85;3.40;;;;;;;32.37;24.88;94530.81;5131106;28;20050;-77
2022/08/19 09:39:40;;;;;;;5.00;3.20;;;;;;;32.59;25.44;94568.16;5096037;28;20088;-76
2022/08/19 09:42:11;;;;;;;7.05;3.58;;;;;;;32.64;24.82;94552.03;5113110;28;20043;-76
2022/08/19 09:44:38;;;;;;;4.43;3.30;;;;;;;32.74;25.53;94549.34;5113782;28;20059;-76
2022/08/19 09:47:04;;;;;;;4.05;3.10;;;;;;;32.82;24.74;94556.84;5131448;28;20031;-76
2022/08/19 09:49:29;;;;;;;3.90;3.25;;;;;;;32.67;24.82;94521.91;5131396;28;20026;-76
2022/08/19 09:51:55;;;;;;;4.55;3.30;;;;;;;32.78;24.05;94523.50;5131473;28;20109;-76
2022/08/19 09:54:21;;;;;;;10.32;5.90;;;;;;;32.69;24.80;94509.03;5113004;28;20025;-76
2022/08/19 09:56:47;;;;;;;4.47;3.80;;;;;;;33.12;24.40;94560.53;5131439;28;20027;-76
2022/08/19 09:59:12;;;;;;;4.38;3.25;;;;;;;33.06;24.61;94546.31;5131174;28;20051;-76
2022/08/19 10:01:38;;;;;;;4.90;4.10;;;;;;;32.77;23.70;94518.41;5079280;28;20408;-76
2022/08/19 10:04:09;;;;;;;5.80;3.53;;;;;;;32.89;25.78;94511.63;5095974;28;20477;-76
2022/08/19 10:06:36;;;;;;;5.43;3.35;;;;;;;32.90;24.97;94497.13;5096817;28;20028;-76
2022/08/19 10:09:04;;;;;;;6.00;3.47;;;;;;;32.96;24.78;94505.16;5131157;28;20030;-76
2022/08/19 10:11:29;;;;;;;6.60;4.38;;;;;;;32.99;23.63;94496.53;5112911;28;20038;-76
2022/08/19 10:13:55;;;;;;;6.72;4.07;;;;;;;33.30;24.54;94538.41;5095904;28;20019;-76
2022/08/19 10:16:25;;;;;;;5.38;3.45;;;;;;;33.11;24.76;94513.22;5131544;28;20031;-76
2022/08/19 10:18:50;;;;;;;;;;;;;;;33.29;25.30;94538.69;5113955;28;20027;-76
2022/08/19 10:21:19;;;;;;;4.47;3.63;;;;;;;33.10;24.73;94514.31;5131640;28;19926;-76
2022/08/19 10:23:45;;;;;;;4.97;3.67;;;;;;;33.24;24.17;94530.63;5112738;28;20848;-76
2022/08/19 10:26:13;;;;;;;5.28;3.67;;;;;;;33.24;23.63;94525.25;5097355;27;20481;-76
2022/08/19 10:28:38;;;;;;;5.60;3.47;;;;;;;33.07;24.82;94494.13;5116457;27;20172;-76
2022/08/19 10:31:09;;;;;;;6.05;3.55;;;;;;;33.08;24.01;94503.81;5099569;27;20481;-76
2022/08/19 10:33:34;;;;;;;7.90;3.97;;;;;;;33.09;24.42;94491.16;5116551;27;20035;-76
2022/08/19 10:36:02;;;;;;;4.28;3.60;;;;;;;33.12;23.88;94498.66;5135078;27;20027;-76
2022/08/19 10:38:28;;;;;;;5.28;3.80;;;;;;;33.31;24.54;94523.88;5116133;27;20084;-76
2022/08/19 10:40:54;;;;;;;6.65;4.13;;;;;;;33.30;24.36;94522.28;5115114;27;20552;-76
2022/08/19 10:43:20;;;;;;;4.78;3.85;;;;;;;33.35;23.96;94514.19;5114018;27;20126;-76
2022/08/19 10:45:54;;;;;;;5.85;4.05;;;;;;;33.21;24.27;94493.50;5132792;27;20053;-75
2022/08/19 10:48:20;;;;;;;5.60;3.58;;;;;;;33.15;24.11;94484.66;5114883;27;20030;-76
2022/08/19 10:53:30;;;;;;;5.05;3.30;;;;;;;33.44;24.85;94519.78;5132311;27;20050;-76
2022/08/19 10:58:41;;;;;;;5.70;5.07;;;;;;;33.08;22.65;94478.78;5133399;27;20585;-79
2022/08/19 11:01:09;;;;;;;5.00;3.78;;;;;;;33.01;23.41;94465.63;5134443;27;20027;-75
2022/08/19 11:03:34;;;;;;;5.78;3.95;;;;;;;33.42;23.83;94513.06;5133955;27;20111;-76
2022/08/19 11:06:01;;;;;;;8.23;3.92;;;;;;;33.47;23.85;94510.34;5115372;27;20102;-76
2022/08/19 11:08:30;;;;;;;5.88;4.00;;;;;;;33.30;24.09;94481.91;5134086;27;20031;-76
2022/08/19 11:11:00;;;;;;;5.20;3.97;;;;;;;33.46;23.88;94492.56;5115683;27;20054;-77
2022/08/19 11:13:27;;;;;;;4.25;3.85;;;;;;;33.34;22.67;94472.19;5098902;27;20134;-76
2022/08/19 11:16:07;;;;;;;7.38;5.63;;;;;;;33.24;23.43;94504.56;5115762;27;20031;-76
2022/08/19 11:18:58;;;;;;;5.47;4.30;;;;;;;33.12;23.07;94480.63;5096158;27;20572;-76
2022/08/19 11:21:27;;;;;;;7.35;4.00;;;;;;;33.23;22.95;94507.50;5074245;28;20415;-75
2022/08/19 11:23:55;;;;;;;8.90;4.22;;;;;;;33.15;23.51;94506.19;5087456;28;20102;-76
2022/08/19 11:26:21;;;;;;;8.02;4.30;;;;;;;33.22;23.72;94503.22;5073366;28;20089;-77
2022/08/19 11:28:51;;;;;;;7.38;4.22;;;;;;;33.26;23.77;94501.56;5089704;28;20040;-76
2022/08/19 11:31:17;;;;;;;;;;;;;;;33.25;23.66;94498.06;5090754;28;20513;-81
2022/08/19 11:33:42;;;;;;;7.35;4.18;;;;;;;32.97;23.44;94496.03;5090441;28;19916;-78
2022/08/19 11:36:08;;;;;;;7.30;4.20;;;;;;;32.81;23.26;94455.72;5056583;28;20154;-78
2022/08/19 11:38:36;;;;;;;5.03;4.30;;;;;;;32.69;24.23;94444.50;5083135;28;20040;-80
2022/08/19 11:41:04;;;;;;;7.45;4.28;;;;;;;33.10;24.12;94484.72;5075737;28;20557;-80
2022/08/19 11:43:30;;;;;;;8.20;4.93;;;;;;;32.80;24.33;94446.06;5082376;28;20588;-80
2022/08/19 11:45:56;;;;;;;7.20;4.93;;;;;;;33.05;23.73;94485.53;5089589;28;20047;-80
2022/08/19 11:48:22;;;;;;;8.07;4.93;;;;;;;32.77;24.34;94441.25;5089841;28;20437;-80
2022/08/19 11:50:51;;;;;;;4.47;3.90;;;;;;;32.91;23.70;94444.94;5072641;28;20024;-81